Terminal Aerodrome Forecast
Issued by NWS Bismarck, ND

Home | Current Version | Previous Version | Text Only | Print | Product List | Glossary Off
Versions: 1 2 3 4 5 6 7 8 9 10 11 12 13 14 15 16 17

000
FTUS43 KBIS 231120
TAFBIS
TAF
KBIS 231120Z 2312/2412 34006KT P6SM SKC
     FM232300 08006KT P6SM SKC
     FM240100 11006KT P6SM SKC
     FM241100 14006KT P6SM FEW110 FEW200=

USA.gov is the U.S. government's official web portal to all federal, state and local government web resources and services.